sensor_id;sensor_type;location;lat;lon;timestamp;temperature;humidity
22716;DHT22;11525;51.152;4.456;2022-10-22T00:02:08;15.70;99.90
22716;DHT22;11525;51.152;4.456;2022-10-22T00:04:34;15.80;99.90
22716;DHT22;11525;51.152;4.456;2022-10-22T00:07:00;15.70;99.90
22716;DHT22;11525;51.152;4.456;2022-10-22T00:09:26;15.60;99.90
22716;DHT22;11525;51.152;4.456;2022-10-22T00:11:52;15.60;99.90
22716;DHT22;11525;51.152;4.456;2022-10-22T00:14:18;15.50;99.90
22716;DHT22;11525;51.152;4.456;2022-10-22T00:16:44;15.50;99.90
22716;DHT22;11525;51.152;4.456;2022-10-22T00:19:10;15.40;99.90
22716;DHT22;11525;51.152;4.456;2022-10-22T00:21:38;15.50;99.90
22716;DHT22;11525;51.152;4.456;2022-10-22T00:24:04;15.50;99.90
22716;DHT22;11525;51.152;4.456;2022-10-22T00:26:30;15.40;99.90
22716;DHT22;11525;51.152;4.456;2022-10-22T00:28:56;15.50;99.90
22716;DHT22;11525;51.152;4.456;2022-10-22T00:31:23;15.60;99.90
22716;DHT22;11525;51.152;4.456;2022-10-22T00:33:49;15.60;99.90
22716;DHT22;11525;51.152;4.456;2022-10-22T00:36:16;15.60;99.90
22716;DHT22;11525;51.152;4.456;2022-10-22T00:38:42;15.50;99.90
22716;DHT22;11525;51.152;4.456;2022-10-22T00:41:08;15.50;99.90
22716;DHT22;11525;51.152;4.456;2022-10-22T00:43:53;15.80;99.90
22716;DHT22;11525;51.152;4.456;2022-10-22T00:46:19;15.70;99.90
22716;DHT22;11525;51.152;4.456;2022-10-22T00:48:45;15.70;99.90
22716;DHT22;11525;51.152;4.456;2022-10-22T00:51:11;15.70;99.90
22716;DHT22;11525;51.152;4.456;2022-10-22T00:53:48;15.70;99.90
22716;DHT22;11525;51.152;4.456;2022-10-22T00:56:15;15.80;99.90
22716;DHT22;11525;51.152;4.456;2022-10-22T00:58:45;15.70;99.90
22716;DHT22;11525;51.152;4.456;2022-10-22T01:01:15;15.50;99.90
22716;DHT22;11525;51.152;4.456;2022-10-22T01:03:42;15.60;99.90
22716;DHT22;11525;51.152;4.456;2022-10-22T01:06:11;15.60;99.90
22716;DHT22;11525;51.152;4.456;2022-10-22T01:17:24;15.50;99.90
22716;DHT22;11525;51.152;4.456;2022-10-22T01:22:44;15.30;99.90
22716;DHT22;11525;51.152;4.456;2022-10-22T01:25:34;15.40;99.90
22716;DHT22;11525;51.152;4.456;2022-10-22T01:28:21;15.40;99.90
22716;DHT22;11525;51.152;4.456;2022-10-22T01:30:50;15.50;99.90
22716;DHT22;11525;51.152;4.456;2022-10-22T01:33:19;15.50;99.90
22716;DHT22;11525;51.152;4.456;2022-10-22T01:35:46;15.50;99.90
22716;DHT22;11525;51.152;4.456;2022-10-22T01:38:16;15.50;99.90
22716;DHT22;11525;51.152;4.456;2022-10-22T01:40:43;15.50;99.90
22716;DHT22;11525;51.152;4.456;2022-10-22T01:43:11;15.60;99.90
22716;DHT22;11525;51.152;4.456;2022-10-22T01:45:46;15.50;99.90
22716;DHT22;11525;51.152;4.456;2022-10-22T01:49:25;15.50;99.90
22716;DHT22;11525;51.152;4.456;2022-10-22T02:01:54;15.50;99.90
22716;DHT22;11525;51.152;4.456;2022-10-22T02:06:56;15.50;99.90
22716;DHT22;11525;51.152;4.456;2022-10-22T02:09:25;15.30;99.90
22716;DHT22;11525;51.152;4.456;2022-10-22T02:11:53;15.30;99.90
22716;DHT22;11525;51.152;4.456;2022-10-22T02:14:19;15.30;99.90
22716;DHT22;11525;51.152;4.456;2022-10-22T02:16:47;15.30;99.90
22716;DHT22;11525;51.152;4.456;2022-10-22T02:21:50;15.30;99.90
22716;DHT22;11525;51.152;4.456;2022-10-22T02:24:16;15.20;99.90
22716;DHT22;11525;51.152;4.456;2022-10-22T02:29:34;15.30;99.90
22716;DHT22;11525;51.152;4.456;2022-10-22T02:32:02;15.30;99.90
22716;DHT22;11525;51.152;4.456;2022-10-22T02:34:30;15.30;99.90
22716;DHT22;11525;51.152;4.456;2022-10-22T02:36:58;15.20;99.90
22716;DHT22;11525;51.152;4.456;2022-10-22T02:39:26;15.20;99.90
22716;DHT22;11525;51.152;4.456;2022-10-22T02:41:52;15.20;99.90
22716;DHT22;11525;51.152;4.456;2022-10-22T02:44:21;15.20;99.90
22716;DHT22;11525;51.152;4.456;2022-10-22T02:46:47;15.20;99.90
22716;DHT22;11525;51.152;4.456;2022-10-22T02:49:13;15.20;99.90
22716;DHT22;11525;51.152;4.456;2022-10-22T02:51:39;15.20;99.90
22716;DHT22;11525;51.152;4.456;2022-10-22T02:54:05;15.20;99.90
22716;DHT22;11525;51.152;4.456;2022-10-22T02:56:30;15.10;99.90
22716;DHT22;11525;51.152;4.456;2022-10-22T02:58:56;15.10;99.90
22716;DHT22;11525;51.152;4.456;2022-10-22T03:01:22;15.10;99.90
22716;DHT22;11525;51.152;4.456;2022-10-22T03:03:47;15.00;99.90
22716;DHT22;11525;51.152;4.456;2022-10-22T03:06:13;15.00;99.90
22716;DHT22;11525;51.152;4.456;2022-10-22T03:08:39;15.00;99.90
22716;DHT22;11525;51.152;4.456;2022-10-22T03:11:05;15.10;99.90
22716;DHT22;11525;51.152;4.456;2022-10-22T03:13:31;15.10;99.90
22716;DHT22;11525;51.152;4.456;2022-10-22T03:15:56;15.10;99.90
22716;DHT22;11525;51.152;4.456;2022-10-22T03:18:22;15.00;99.90
22716;DHT22;11525;51.152;4.456;2022-10-22T03:20:48;15.00;99.90
22716;DHT22;11525;51.152;4.456;2022-10-22T03:23:16;15.00;99.90
22716;DHT22;11525;51.152;4.456;2022-10-22T03:25:43;14.90;99.90
22716;DHT22;11525;51.152;4.456;2022-10-22T03:28:12;14.90;99.90
22716;DHT22;11525;51.152;4.456;2022-10-22T03:30:39;15.00;99.90
22716;DHT22;11525;51.152;4.456;2022-10-22T03:33:05;15.00;99.90
22716;DHT22;11525;51.152;4.456;2022-10-22T03:35:31;15.00;99.90
22716;DHT22;11525;51.152;4.456;2022-10-22T03:37:59;15.10;99.90
22716;DHT22;11525;51.152;4.456;2022-10-22T03:40:25;15.20;99.90
22716;DHT22;11525;51.152;4.456;2022-10-22T03:42:51;15.20;99.90
22716;DHT22;11525;51.152;4.456;2022-10-22T03:45:17;15.20;99.90
22716;DHT22;11525;51.152;4.456;2022-10-22T03:47:43;15.40;99.90
22716;DHT22;11525;51.152;4.456;2022-10-22T03:50:09;15.40;99.90
22716;DHT22;11525;51.152;4.456;2022-10-22T03:52:36;15.40;99.90
22716;DHT22;11525;51.152;4.456;2022-10-22T03:55:03;15.40;99.90
22716;DHT22;11525;51.152;4.456;2022-10-22T03:57:29;15.40;99.90
22716;DHT22;11525;51.152;4.456;2022-10-22T03:59:55;15.40;99.90
22716;DHT22;11525;51.152;4.456;2022-10-22T04:02:20;15.50;99.90
22716;DHT22;11525;51.152;4.456;2022-10-22T04:04:46;15.60;99.90
22716;DHT22;11525;51.152;4.456;2022-10-22T04:07:12;15.60;99.90
22716;DHT22;11525;51.152;4.456;2022-10-22T04:09:37;15.60;99.90
22716;DHT22;11525;51.152;4.456;2022-10-22T04:12:04;15.50;99.90
22716;DHT22;11525;51.152;4.456;2022-10-22T04:14:32;15.50;99.90
22716;DHT22;11525;51.152;4.456;2022-10-22T04:16:58;15.60;99.90
22716;DHT22;11525;51.152;4.456;2022-10-22T04:19:23;15.60;99.90
22716;DHT22;11525;51.152;4.456;2022-10-22T04:21:49;15.50;99.90
22716;DHT22;11525;51.152;4.456;2022-10-22T04:24:15;15.50;99.90
22716;DHT22;11525;51.152;4.456;2022-10-22T04:26:41;15.50;99.90
22716;DHT22;11525;51.152;4.456;2022-10-22T04:29:07;15.50;99.90
22716;DHT22;11525;51.152;4.456;2022-10-22T04:31:33;15.40;99.90
22716;DHT22;11525;51.152;4.456;2022-10-22T05:10:59;14.20;99.90
22716;DHT22;11525;51.152;4.456;2022-10-22T05:13:25;14.90;99.90
22716;DHT22;11525;51.152;4.456;2022-10-22T05:15:51;14.90;99.90
22716;DHT22;11525;51.152;4.456;2022-10-22T05:18:17;15.00;99.90
22716;DHT22;11525;51.152;4.456;2022-10-22T05:20:43;15.00;99.90
22716;DHT22;11525;51.152;4.456;2022-10-22T05:23:09;14.90;99.90
22716;DHT22;11525;51.152;4.456;2022-10-22T05:25:38;14.80;99.90
22716;DHT22;11525;51.152;4.456;2022-10-22T05:28:04;14.70;99.90
22716;DHT22;11525;51.152;4.456;2022-10-22T05:30:30;14.80;99.90
22716;DHT22;11525;51.152;4.456;2022-10-22T05:32:56;14.80;99.90
22716;DHT22;11525;51.152;4.456;2022-10-22T05:35:22;14.90;99.90
22716;DHT22;11525;51.152;4.456;2022-10-22T05:37:48;14.90;99.90
22716;DHT22;11525;51.152;4.456;2022-10-22T05:40:15;14.80;99.90
22716;DHT22;11525;51.152;4.456;2022-10-22T05:42:41;14.80;99.90
22716;DHT22;11525;51.152;4.456;2022-10-22T05:45:08;14.80;99.90
22716;DHT22;11525;51.152;4.456;2022-10-22T05:47:33;14.90;99.90
22716;DHT22;11525;51.152;4.456;2022-10-22T05:49:59;14.90;99.90
22716;DHT22;11525;51.152;4.456;2022-10-22T05:52:25;14.90;99.90
22716;DHT22;11525;51.152;4.456;2022-10-22T05:54:51;14.90;99.90
22716;DHT22;11525;51.152;4.456;2022-10-22T05:57:17;14.90;99.90
22716;DHT22;11525;51.152;4.456;2022-10-22T05:59:43;14.90;99.90
22716;DHT22;11525;51.152;4.456;2022-10-22T06:02:09;14.90;99.90
22716;DHT22;11525;51.152;4.456;2022-10-22T06:04:35;14.90;99.90
22716;DHT22;11525;51.152;4.456;2022-10-22T06:07:01;14.80;99.90
22716;DHT22;11525;51.152;4.456;2022-10-22T06:09:30;14.90;99.90
22716;DHT22;11525;51.152;4.456;2022-10-22T06:11:57;14.90;99.90
22716;DHT22;11525;51.152;4.456;2022-10-22T06:14:24;14.90;99.90
22716;DHT22;11525;51.152;4.456;2022-10-22T06:16:50;14.90;99.90
22716;DHT22;11525;51.152;4.456;2022-10-22T06:19:18;14.90;99.90
22716;DHT22;11525;51.152;4.456;2022-10-22T06:21:44;14.90;99.90
22716;DHT22;11525;51.152;4.456;2022-10-22T06:24:11;15.00;99.90
22716;DHT22;11525;51.152;4.456;2022-10-22T06:26:37;15.10;99.90
22716;DHT22;11525;51.152;4.456;2022-10-22T06:29:03;15.20;99.90
22716;DHT22;11525;51.152;4.456;2022-10-22T06:31:30;15.30;99.90
22716;DHT22;11525;51.152;4.456;2022-10-22T06:34:03;15.30;99.90
22716;DHT22;11525;51.152;4.456;2022-10-22T06:36:29;15.40;99.90
22716;DHT22;11525;51.152;4.456;2022-10-22T06:38:55;15.40;99.90
22716;DHT22;11525;51.152;4.456;2022-10-22T06:41:22;15.70;99.90
22716;DHT22;11525;51.152;4.456;2022-10-22T06:43:49;15.80;99.90
22716;DHT22;11525;51.152;4.456;2022-10-22T06:46:18;15.70;99.90
22716;DHT22;11525;51.152;4.456;2022-10-22T06:48:49;15.70;99.90
22716;DHT22;11525;51.152;4.456;2022-10-22T06:51:15;15.80;99.90
22716;DHT22;11525;51.152;4.456;2022-10-22T06:53:41;15.90;99.90
22716;DHT22;11525;51.152;4.456;2022-10-22T06:56:12;16.10;99.90
22716;DHT22;11525;51.152;4.456;2022-10-22T06:58:38;16.30;99.90
22716;DHT22;11525;51.152;4.456;2022-10-22T07:01:11;16.40;99.90
22716;DHT22;11525;51.152;4.456;2022-10-22T07:03:38;16.30;99.90
22716;DHT22;11525;51.152;4.456;2022-10-22T07:06:07;16.20;99.90
22716;DHT22;11525;51.152;4.456;2022-10-22T07:08:34;16.30;99.90
22716;DHT22;11525;51.152;4.456;2022-10-22T07:11:25;16.40;99.90
22716;DHT22;11525;51.152;4.456;2022-10-22T07:13:55;16.60;99.90
22716;DHT22;11525;51.152;4.456;2022-10-22T07:16:24;16.70;99.90
22716;DHT22;11525;51.152;4.456;2022-10-22T07:18:54;16.70;99.90
22716;DHT22;11525;51.152;4.456;2022-10-22T07:21:19;16.70;99.90
22716;DHT22;11525;51.152;4.456;2022-10-22T07:23:47;16.50;99.90
22716;DHT22;11525;51.152;4.456;2022-10-22T07:26:15;16.50;99.90
22716;DHT22;11525;51.152;4.456;2022-10-22T07:28:53;16.50;99.90
22716;DHT22;11525;51.152;4.456;2022-10-22T07:31:19;16.60;99.90
22716;DHT22;11525;51.152;4.456;2022-10-22T07:33:45;16.60;99.90
22716;DHT22;11525;51.152;4.456;2022-10-22T07:36:14;16.80;99.90
22716;DHT22;11525;51.152;4.456;2022-10-22T07:38:45;16.80;99.90
22716;DHT22;11525;51.152;4.456;2022-10-22T07:41:13;16.80;99.90
22716;DHT22;11525;51.152;4.456;2022-10-22T07:43:39;16.90;99.90
22716;DHT22;11525;51.152;4.456;2022-10-22T07:46:05;17.10;99.90
22716;DHT22;11525;51.152;4.456;2022-10-22T07:48:34;17.10;99.90
22716;DHT22;11525;51.152;4.456;2022-10-22T07:51:00;17.30;99.90
22716;DHT22;11525;51.152;4.456;2022-10-22T07:53:26;17.40;99.90
22716;DHT22;11525;51.152;4.456;2022-10-22T07:55:51;17.50;99.90
22716;DHT22;11525;51.152;4.456;2022-10-22T07:58:18;17.80;99.90
22716;DHT22;11525;51.152;4.456;2022-10-22T08:00:45;18.00;99.90
22716;DHT22;11525;51.152;4.456;2022-10-22T08:03:12;18.20;99.90
22716;DHT22;11525;51.152;4.456;2022-10-22T08:05:41;18.50;99.90
22716;DHT22;11525;51.152;4.456;2022-10-22T08:08:12;18.50;99.90
22716;DHT22;11525;51.152;4.456;2022-10-22T08:10:41;18.40;99.90
22716;DHT22;11525;51.152;4.456;2022-10-22T08:13:07;18.40;99.90
22716;DHT22;11525;51.152;4.456;2022-10-22T08:15:33;18.30;99.90
22716;DHT22;11525;51.152;4.456;2022-10-22T08:17:59;18.30;99.90
22716;DHT22;11525;51.152;4.456;2022-10-22T08:20:28;18.20;99.90
22716;DHT22;11525;51.152;4.456;2022-10-22T08:22:54;18.40;99.90
22716;DHT22;11525;51.152;4.456;2022-10-22T08:25:20;18.80;99.90
22716;DHT22;11525;51.152;4.456;2022-10-22T08:27:46;20.10;99.90
22716;DHT22;11525;51.152;4.456;2022-10-22T08:30:21;21.80;99.90
22716;DHT22;11525;51.152;4.456;2022-10-22T08:32:47;23.10;99.90
22716;DHT22;11525;51.152;4.456;2022-10-22T08:35:13;24.50;99.90
22716;DHT22;11525;51.152;4.456;2022-10-22T08:37:39;25.40;99.90
22716;DHT22;11525;51.152;4.456;2022-10-22T08:40:06;26.10;99.90
22716;DHT22;11525;51.152;4.456;2022-10-22T08:45:14;24.40;99.90
22716;DHT22;11525;51.152;4.456;2022-10-22T08:50:45;22.20;99.90
22716;DHT22;11525;51.152;4.456;2022-10-22T08:53:15;21.30;99.90
22716;DHT22;11525;51.152;4.456;2022-10-22T08:55:43;20.60;99.90
22716;DHT22;11525;51.152;4.456;2022-10-22T09:00:59;21.90;99.90
22716;DHT22;11525;51.152;4.456;2022-10-22T09:03:56;23.70;99.90
22716;DHT22;11525;51.152;4.456;2022-10-22T09:06:28;25.20;99.90
22716;DHT22;11525;51.152;4.456;2022-10-22T09:08:59;25.20;99.90
22716;DHT22;11525;51.152;4.456;2022-10-22T09:11:37;24.60;99.90
22716;DHT22;11525;51.152;4.456;2022-10-22T09:14:03;23.50;99.90
22716;DHT22;11525;51.152;4.456;2022-10-22T09:16:36;22.90;99.90
22716;DHT22;11525;51.152;4.456;2022-10-22T09:21:40;22.80;99.90
22716;DHT22;11525;51.152;4.456;2022-10-22T09:24:27;22.40;99.90
22716;DHT22;11525;51.152;4.456;2022-10-22T09:26:55;22.00;99.90
22716;DHT22;11525;51.152;4.456;2022-10-22T09:29:31;21.70;99.90
22716;DHT22;11525;51.152;4.456;2022-10-22T09:31:57;21.90;99.90
22716;DHT22;11525;51.152;4.456;2022-10-22T09:34:23;22.70;99.90
22716;DHT22;11525;51.152;4.456;2022-10-22T09:37:01;23.30;99.90
22716;DHT22;11525;51.152;4.456;2022-10-22T09:39:34;24.10;99.90
22716;DHT22;11525;51.152;4.456;2022-10-22T09:42:01;25.00;99.90
22716;DHT22;11525;51.152;4.456;2022-10-22T09:44:27;25.40;99.90
22716;DHT22;11525;51.152;4.456;2022-10-22T09:46:53;25.40;99.90
22716;DHT22;11525;51.152;4.456;2022-10-22T09:49:21;26.10;99.90
22716;DHT22;11525;51.152;4.456;2022-10-22T09:51:53;26.20;99.90
22716;DHT22;11525;51.152;4.456;2022-10-22T09:56:56;24.70;99.90
22716;DHT22;11525;51.152;4.456;2022-10-22T09:59:35;24.10;99.90
22716;DHT22;11525;51.152;4.456;2022-10-22T10:02:13;23.60;99.90
22716;DHT22;11525;51.152;4.456;2022-10-22T10:07:21;23.60;99.90
22716;DHT22;11525;51.152;4.456;2022-10-22T10:09:47;23.80;99.90
22716;DHT22;11525;51.152;4.456;2022-10-22T10:13:42;23.60;99.90
22716;DHT22;11525;51.152;4.456;2022-10-22T10:15:52;23.80;99.90
22716;DHT22;11525;51.152;4.456;2022-10-22T10:24:27;23.80;99.90
22716;DHT22;11525;51.152;4.456;2022-10-22T10:32:18;23.10;99.90
22716;DHT22;11525;51.152;4.456;2022-10-22T10:37:46;22.40;99.90
22716;DHT22;11525;51.152;4.456;2022-10-22T10:40:18;22.30;99.90
22716;DHT22;11525;51.152;4.456;2022-10-22T10:48:36;22.20;99.90
22716;DHT22;11525;51.152;4.456;2022-10-22T10:56:50;21.30;99.90
22716;DHT22;11525;51.152;4.456;2022-10-22T10:59:22;21.20;99.90
22716;DHT22;11525;51.152;4.456;2022-10-22T11:06:57;20.80;99.90
22716;DHT22;11525;51.152;4.456;2022-10-22T11:09:29;20.90;99.90
22716;DHT22;11525;51.152;4.456;2022-10-22T11:12:11;20.70;99.90
22716;DHT22;11525;51.152;4.456;2022-10-22T11:15:01;20.80;99.90
22716;DHT22;11525;51.152;4.456;2022-10-22T11:17:40;20.50;99.90
22716;DHT22;11525;51.152;4.456;2022-10-22T11:22:51;20.30;99.90
22716;DHT22;11525;51.152;4.456;2022-10-22T11:25:26;20.20;99.90
22716;DHT22;11525;51.152;4.456;2022-10-22T11:27:59;20.20;99.90
22716;DHT22;11525;51.152;4.456;2022-10-22T11:30:29;20.40;99.90
22716;DHT22;11525;51.152;4.456;2022-10-22T11:32:59;20.50;99.90
22716;DHT22;11525;51.152;4.456;2022-10-22T11:35:29;20.60;99.90
22716;DHT22;11525;51.152;4.456;2022-10-22T11:37:57;20.80;99.90
22716;DHT22;11525;51.152;4.456;2022-10-22T11:40:35;21.00;99.90
22716;DHT22;11525;51.152;4.456;2022-10-22T11:43:06;21.10;99.90
22716;DHT22;11525;51.152;4.456;2022-10-22T11:45:38;21.40;99.90
22716;DHT22;11525;51.152;4.456;2022-10-22T11:48:14;21.40;99.90
22716;DHT22;11525;51.152;4.456;2022-10-22T11:50:43;21.40;99.90
22716;DHT22;11525;51.152;4.456;2022-10-22T11:58:40;21.20;99.90
22716;DHT22;11525;51.152;4.456;2022-10-22T12:03:40;21.00;99.90
22716;DHT22;11525;51.152;4.456;2022-10-22T12:14:25;21.60;99.90
22716;DHT22;11525;51.152;4.456;2022-10-22T12:17:15;21.60;99.90
22716;DHT22;11525;51.152;4.456;2022-10-22T12:19:50;21.50;99.90
22716;DHT22;11525;51.152;4.456;2022-10-22T12:22:29;21.20;99.90
22716;DHT22;11525;51.152;4.456;2022-10-22T12:25:00;21.10;99.90
22716;DHT22;11525;51.152;4.456;2022-10-22T12:27:32;21.00;99.90
22716;DHT22;11525;51.152;4.456;2022-10-22T12:30:00;20.70;99.90
22716;DHT22;11525;51.152;4.456;2022-10-22T12:32:35;20.60;99.90
22716;DHT22;11525;51.152;4.456;2022-10-22T12:35:24;20.70;99.90
22716;DHT22;11525;51.152;4.456;2022-10-22T12:37:56;20.90;99.90
22716;DHT22;11525;51.152;4.456;2022-10-22T12:40:25;20.90;99.90
22716;DHT22;11525;51.152;4.456;2022-10-22T12:43:06;21.10;99.90
22716;DHT22;11525;51.152;4.456;2022-10-22T12:45:37;21.20;99.90
22716;DHT22;11525;51.152;4.456;2022-10-22T12:48:06;21.30;99.90
22716;DHT22;11525;51.152;4.456;2022-10-22T12:50:36;21.20;99.90
22716;DHT22;11525;51.152;4.456;2022-10-22T12:53:10;21.20;99.90
22716;DHT22;11525;51.152;4.456;2022-10-22T12:55:38;21.10;99.90
22716;DHT22;11525;51.152;4.456;2022-10-22T12:58:14;21.10;99.90
22716;DHT22;11525;51.152;4.456;2022-10-22T13:00:41;20.80;99.90
22716;DHT22;11525;51.152;4.456;2022-10-22T13:03:07;20.60;99.90
22716;DHT22;11525;51.152;4.456;2022-10-22T13:05:34;20.50;99.90
22716;DHT22;11525;51.152;4.456;2022-10-22T13:08:10;20.50;99.90
22716;DHT22;11525;51.152;4.456;2022-10-22T13:10:47;20.50;99.90
22716;DHT22;11525;51.152;4.456;2022-10-22T13:13:41;20.60;99.90
22716;DHT22;11525;51.152;4.456;2022-10-22T13:16:23;20.70;99.90
22716;DHT22;11525;51.152;4.456;2022-10-22T13:18:51;20.40;99.90
22716;DHT22;11525;51.152;4.456;2022-10-22T13:21:25;20.20;99.90
22716;DHT22;11525;51.152;4.456;2022-10-22T13:23:54;20.10;99.90
22716;DHT22;11525;51.152;4.456;2022-10-22T13:26:29;20.20;99.90
22716;DHT22;11525;51.152;4.456;2022-10-22T13:28:56;20.20;99.90
22716;DHT22;11525;51.152;4.456;2022-10-22T13:31:28;20.50;99.90
22716;DHT22;11525;51.152;4.456;2022-10-22T13:33:59;20.80;99.90
22716;DHT22;11525;51.152;4.456;2022-10-22T13:36:26;20.70;99.90
22716;DHT22;11525;51.152;4.456;2022-10-22T13:38:52;20.70;99.90
22716;DHT22;11525;51.152;4.456;2022-10-22T13:43:45;20.80;99.90
22716;DHT22;11525;51.152;4.456;2022-10-22T13:46:11;20.60;99.90
22716;DHT22;11525;51.152;4.456;2022-10-22T13:48:40;20.60;99.90
22716;DHT22;11525;51.152;4.456;2022-10-22T13:51:17;20.60;99.90
22716;DHT22;11525;51.152;4.456;2022-10-22T13:54:00;20.80;99.90
22716;DHT22;11525;51.152;4.456;2022-10-22T13:56:27;20.90;99.90
22716;DHT22;11525;51.152;4.456;2022-10-22T13:58:54;21.10;99.90
22716;DHT22;11525;51.152;4.456;2022-10-22T14:01:23;21.10;99.90
22716;DHT22;11525;51.152;4.456;2022-10-22T14:03:51;21.20;99.90
22716;DHT22;11525;51.152;4.456;2022-10-22T14:06:18;21.10;99.90
22716;DHT22;11525;51.152;4.456;2022-10-22T14:08:48;21.20;99.90
22716;DHT22;11525;51.152;4.456;2022-10-22T14:11:16;21.10;99.90
22716;DHT22;11525;51.152;4.456;2022-10-22T14:13:43;21.00;99.90
22716;DHT22;11525;51.152;4.456;2022-10-22T14:16:17;20.90;99.90
22716;DHT22;11525;51.152;4.456;2022-10-22T14:18:53;20.70;99.90
22716;DHT22;11525;51.152;4.456;2022-10-22T14:21:23;20.50;99.90
22716;DHT22;11525;51.152;4.456;2022-10-22T14:23:49;20.50;99.90
22716;DHT22;11525;51.152;4.456;2022-10-22T14:26:28;20.50;99.90
22716;DHT22;11525;51.152;4.456;2022-10-22T14:29:00;20.50;99.90
22716;DHT22;11525;51.152;4.456;2022-10-22T14:31:26;20.50;99.90
22716;DHT22;11525;51.152;4.456;2022-10-22T14:33:52;20.60;99.90
22716;DHT22;11525;51.152;4.456;2022-10-22T14:36:19;20.70;99.90
22716;DHT22;11525;51.152;4.456;2022-10-22T14:38:46;20.80;99.90
22716;DHT22;11525;51.152;4.456;2022-10-22T14:41:27;20.90;99.90
22716;DHT22;11525;51.152;4.456;2022-10-22T14:43:54;20.90;99.90
22716;DHT22;11525;51.152;4.456;2022-10-22T14:46:21;20.90;99.90
22716;DHT22;11525;51.152;4.456;2022-10-22T14:48:47;20.80;99.90
22716;DHT22;11525;51.152;4.456;2022-10-22T14:51:16;20.60;99.90
22716;DHT22;11525;51.152;4.456;2022-10-22T14:53:42;20.70;99.90
22716;DHT22;11525;51.152;4.456;2022-10-22T14:56:13;20.60;99.90
22716;DHT22;11525;51.152;4.456;2022-10-22T14:58:39;20.60;99.90
22716;DHT22;11525;51.152;4.456;2022-10-22T15:01:06;20.50;99.90
22716;DHT22;11525;51.152;4.456;2022-10-22T15:03:32;20.40;99.90
22716;DHT22;11525;51.152;4.456;2022-10-22T15:05:59;20.30;99.90
22716;DHT22;11525;51.152;4.456;2022-10-22T15:08:25;20.30;99.90
22716;DHT22;11525;51.152;4.456;2022-10-22T15:11:11;20.10;99.90
22716;DHT22;11525;51.152;4.456;2022-10-22T15:13:38;20.10;99.90
22716;DHT22;11525;51.152;4.456;2022-10-22T15:16:07;20.00;99.90
22716;DHT22;11525;51.152;4.456;2022-10-22T15:18:34;20.10;99.90
22716;DHT22;11525;51.152;4.456;2022-10-22T15:21:14;20.00;99.90
22716;DHT22;11525;51.152;4.456;2022-10-22T15:23:40;20.00;99.90
22716;DHT22;11525;51.152;4.456;2022-10-22T15:26:08;19.90;99.90
22716;DHT22;11525;51.152;4.456;2022-10-22T15:28:35;19.90;99.90
22716;DHT22;11525;51.152;4.456;2022-10-22T15:31:01;19.70;99.90
22716;DHT22;11525;51.152;4.456;2022-10-22T15:33:28;19.50;99.90
22716;DHT22;11525;51.152;4.456;2022-10-22T15:35:55;19.50;99.90
22716;DHT22;11525;51.152;4.456;2022-10-22T15:38:25;19.50;99.90
22716;DHT22;11525;51.152;4.456;2022-10-22T15:41:00;19.40;99.90
22716;DHT22;11525;51.152;4.456;2022-10-22T15:43:26;19.50;99.90
22716;DHT22;11525;51.152;4.456;2022-10-22T15:46:13;19.40;99.90
22716;DHT22;11525;51.152;4.456;2022-10-22T15:48:40;19.30;99.90
22716;DHT22;11525;51.152;4.456;2022-10-22T15:51:11;19.30;99.90
22716;DHT22;11525;51.152;4.456;2022-10-22T15:53:38;19.20;99.90
22716;DHT22;11525;51.152;4.456;2022-10-22T15:56:04;19.10;99.90
22716;DHT22;11525;51.152;4.456;2022-10-22T15:58:30;19.00;99.90
22716;DHT22;11525;51.152;4.456;2022-10-22T16:01:09;19.00;99.90
22716;DHT22;11525;51.152;4.456;2022-10-22T16:03:36;18.90;99.90
22716;DHT22;11525;51.152;4.456;2022-10-22T16:06:03;18.90;99.90
22716;DHT22;11525;51.152;4.456;2022-10-22T16:08:30;18.80;99.90
22716;DHT22;11525;51.152;4.456;2022-10-22T16:10:56;18.70;99.90
22716;DHT22;11525;51.152;4.456;2022-10-22T16:13:23;18.70;99.90
22716;DHT22;11525;51.152;4.456;2022-10-22T16:15:51;18.60;99.90
22716;DHT22;11525;51.152;4.456;2022-10-22T16:18:18;18.60;99.90
22716;DHT22;11525;51.152;4.456;2022-10-22T16:20:44;18.40;99.90
22716;DHT22;11525;51.152;4.456;2022-10-22T16:23:11;18.30;99.90
22716;DHT22;11525;51.152;4.456;2022-10-22T16:25:40;18.20;99.90
22716;DHT22;11525;51.152;4.456;2022-10-22T16:28:07;18.10;99.90
22716;DHT22;11525;51.152;4.456;2022-10-22T16:30:37;18.00;99.90
22716;DHT22;11525;51.152;4.456;2022-10-22T16:33:05;17.80;99.90
22716;DHT22;11525;51.152;4.456;2022-10-22T16:35:37;17.70;99.90
22716;DHT22;11525;51.152;4.456;2022-10-22T16:38:04;17.60;99.90
22716;DHT22;11525;51.152;4.456;2022-10-22T16:40:31;17.50;99.90
22716;DHT22;11525;51.152;4.456;2022-10-22T16:43:00;17.40;99.90
22716;DHT22;11525;51.152;4.456;2022-10-22T16:45:26;17.40;99.90
22716;DHT22;11525;51.152;4.456;2022-10-22T16:47:52;17.30;99.90
22716;DHT22;11525;51.152;4.456;2022-10-22T16:50:25;17.20;99.90
22716;DHT22;11525;51.152;4.456;2022-10-22T16:52:51;17.20;99.90
22716;DHT22;11525;51.152;4.456;2022-10-22T16:55:17;17.20;99.90
22716;DHT22;11525;51.152;4.456;2022-10-22T16:57:49;17.20;99.90
22716;DHT22;11525;51.152;4.456;2022-10-22T17:00:16;17.20;99.90
22716;DHT22;11525;51.152;4.456;2022-10-22T17:02:42;17.10;99.90
22716;DHT22;11525;51.152;4.456;2022-10-22T17:05:08;17.00;99.90
22716;DHT22;11525;51.152;4.456;2022-10-22T17:07:35;16.90;99.90
22716;DHT22;11525;51.152;4.456;2022-10-22T17:10:01;16.90;99.90
22716;DHT22;11525;51.152;4.456;2022-10-22T17:12:28;16.70;99.90
22716;DHT22;11525;51.152;4.456;2022-10-22T17:15:01;16.60;99.90
22716;DHT22;11525;51.152;4.456;2022-10-22T17:17:27;16.60;99.90
22716;DHT22;11525;51.152;4.456;2022-10-22T17:19:54;16.50;99.90
22716;DHT22;11525;51.152;4.456;2022-10-22T17:22:20;16.50;99.90
22716;DHT22;11525;51.152;4.456;2022-10-22T17:24:46;16.40;99.90
22716;DHT22;11525;51.152;4.456;2022-10-22T17:27:12;16.40;99.90
22716;DHT22;11525;51.152;4.456;2022-10-22T17:29:38;16.40;99.90
22716;DHT22;11525;51.152;4.456;2022-10-22T17:32:04;16.40;99.90
22716;DHT22;11525;51.152;4.456;2022-10-22T17:34:30;16.40;99.90
22716;DHT22;11525;51.152;4.456;2022-10-22T17:36:58;16.40;99.90
22716;DHT22;11525;51.152;4.456;2022-10-22T17:39:25;16.50;99.90
22716;DHT22;11525;51.152;4.456;2022-10-22T17:41:52;16.40;99.90
22716;DHT22;11525;51.152;4.456;2022-10-22T17:44:18;16.30;99.90
22716;DHT22;11525;51.152;4.456;2022-10-22T17:46:45;16.20;99.90
22716;DHT22;11525;51.152;4.456;2022-10-22T17:49:16;16.20;99.90
22716;DHT22;11525;51.152;4.456;2022-10-22T17:51:43;16.10;99.90
22716;DHT22;11525;51.152;4.456;2022-10-22T17:54:09;16.10;99.90
22716;DHT22;11525;51.152;4.456;2022-10-22T17:56:35;16.00;99.90
22716;DHT22;11525;51.152;4.456;2022-10-22T17:59:01;15.90;99.90